createdAt,value
2019-01-16T00:00:42.715Z,100799.72
2019-01-16T00:03:43.204Z,100795.86
2019-01-16T00:06:37.443Z,100795.02
2019-01-16T00:09:26.641Z,100797.17
2019-01-16T00:12:18.119Z,100790.73
2019-01-16T00:15:08.401Z,100784.55
2019-01-16T00:18:09.123Z,100793.37
2019-01-16T00:20:58.693Z,100783.48
2019-01-16T00:23:53.405Z,100787.03
2019-01-16T00:26:44.886Z,100784.16
2019-01-16T00:29:32.167Z,100784.72
2019-01-16T00:32:10.688Z,100785.95
2019-01-16T00:34:50.169Z,100774.66
2019-01-16T00:37:37.098Z,100776.91
2019-01-16T00:40:25.931Z,100773.27
2019-01-16T00:43:17.417Z,100769.88
2019-01-16T00:46:11.774Z,100768.17
2019-01-16T00:48:52.576Z,100779.84
2019-01-16T00:51:46.336Z,100770.80
2019-01-16T00:54:50.058Z,100774.45
2019-01-16T00:57:53.421Z,100769.95
2019-01-16T01:00:47.781Z,100772.67
2019-01-16T01:03:39.141Z,100775.22
2019-01-16T01:06:26.423Z,100771.36
2019-01-16T01:09:13.584Z,100774.45
2019-01-16T01:11:54.989Z,100775.30
2019-01-16T01:14:40.347Z,100771.50
2019-01-16T01:17:37.828Z,100770.95
2019-01-16T01:20:25.229Z,100771.96
2019-01-16T01:23:31.591Z,100766.95
2019-01-16T01:26:30.513Z,100770.05
2019-01-16T01:29:17.433Z,100766.63
2019-01-16T01:32:07.239Z,100773.58
2019-01-16T01:34:48.035Z,100769.11
2019-01-16T01:37:48.764Z,100776.75
2019-01-16T01:40:47.077Z,100762.67
2019-01-16T01:43:34.119Z,100777.31
2019-01-16T01:46:31.001Z,100782.39
2019-01-16T01:49:31.364Z,100781.47
2019-01-16T01:52:38.083Z,100770.95
2019-01-16T01:55:25.246Z,100787.43
2019-01-16T01:58:16.846Z,100775.77
2019-01-16T02:01:04.127Z,100779.72
2019-01-16T02:03:47.928Z,100776.75
2019-01-16T02:06:43.098Z,100779.77
2019-01-16T02:09:30.006Z,100775.36
2019-01-16T02:12:14.625Z,100773.58
2019-01-16T02:15:02.876Z,100777.14
2019-01-16T02:17:49.765Z,100766.86
2019-01-16T02:20:47.226Z,100764.78
2019-01-16T02:23:41.175Z,100771.36
2019-01-16T02:26:27.939Z,100770.05
2019-01-16T02:29:19.818Z,100772.67
2019-01-16T02:32:07.466Z,100770.56
2019-01-16T02:35:11.659Z,100763.05
2019-01-16T02:37:54.496Z,100764.78
2019-01-16T02:40:41.775Z,100763.05
2019-01-16T02:43:29.775Z,100750.63
2019-01-16T02:46:09.631Z,100750.63
2019-01-16T02:48:55.844Z,100754.79
2019-01-16T02:51:50.070Z,100748.21
2019-01-16T02:54:44.764Z,100748.59
2019-01-16T02:57:23.168Z,100743.89
2019-01-16T03:00:03.845Z,100746.14
2019-01-16T03:02:55.693Z,100740.33
2019-01-16T03:05:42.744Z,100736.47
2019-01-16T03:08:18.609Z,100733.28
2019-01-16T03:11:17.529Z,100724.50
2019-01-16T03:14:00.854Z,100727.17
2019-01-16T03:16:41.412Z,100720.98
2019-01-16T03:19:28.333Z,100724.92
2019-01-16T03:22:25.716Z,100721.92
2019-01-16T03:25:05.296Z,100718.77
2019-01-16T03:27:53.657Z,100714.12
2019-01-16T03:30:44.576Z,100700.21
2019-01-16T03:33:32.568Z,100706.52
2019-01-16T03:36:33.892Z,100703.46
2019-01-16T03:39:18.651Z,100699.57
2019-01-16T03:42:07.017Z,100691.47
2019-01-16T03:45:14.571Z,100682.74
2019-01-16T03:48:04.225Z,100686.98
2019-01-16T03:50:50.912Z,100689.78
2019-01-16T03:53:58.467Z,100677.77
2019-01-16T03:56:57.992Z,100675.44
2019-01-16T03:59:46.711Z,100671.58
2019-01-16T04:02:38.202Z,100675.70
2019-01-16T04:05:25.713Z,100674.00
2019-01-16T04:08:33.273Z,100673.83
2019-01-16T04:11:23.185Z,100668.75
2019-01-16T04:14:10.009Z,100668.57
2019-01-16T04:17:04.257Z,100659.75
2019-01-16T04:20:01.969Z,100659.55
2019-01-16T04:22:49.671Z,100664.45
2019-01-16T04:25:44.670Z,100658.61
2019-01-16T04:28:22.224Z,100661.53
2019-01-16T04:31:06.749Z,100652.80
2019-01-16T04:33:58.254Z,100651.86
2019-01-16T04:36:45.504Z,100647.71
2019-01-16T04:39:33.996Z,100643.77
2019-01-16T04:42:19.585Z,100641.61
2019-01-16T04:45:15.028Z,100644.91
2019-01-16T04:48:18.146Z,100643.77
2019-01-16T04:51:06.398Z,100637.20
2019-01-16T04:53:49.357Z,100646.69
2019-01-16T04:56:37.830Z,100638.89
2019-01-16T04:59:45.754Z,100642.28
2019-01-16T05:02:33.628Z,100641.90
2019-01-16T05:05:27.390Z,100636.82
2019-01-16T05:08:28.108Z,100630.25
2019-01-16T05:11:20.308Z,100616.31
2019-01-16T05:13:59.549Z,100624.14
2019-01-16T05:16:48.508Z,100623.97
2019-01-16T05:19:47.317Z,100625.37
2019-01-16T05:22:26.191Z,100629.83
2019-01-16T05:25:10.011Z,100626.30
2019-01-16T05:28:13.136Z,100627.20
2019-01-16T05:31:03.691Z,100624.38
2019-01-16T05:33:52.653Z,100619.78
2019-01-16T05:36:46.532Z,100617.25
2019-01-16T05:39:26.260Z,100607.66
2019-01-16T05:42:13.775Z,100609.53
2019-01-16T05:45:14.017Z,100595.22
2019-01-16T05:48:05.384Z,100600.25
2019-01-16T05:50:53.498Z,100590.91
2019-01-16T05:53:53.261Z,100602.20
2019-01-16T05:56:58.688Z,100597.16
2019-01-16T05:59:53.824Z,100589.59
2019-01-16T06:03:05.082Z,100580.62
2019-01-16T06:06:09.585Z,100588.33
2019-01-16T06:09:13.667Z,100586.63
2019-01-16T06:12:05.267Z,100580.91
2019-01-16T06:15:03.827Z,100575.73
2019-01-16T06:17:50.150Z,100583.83
2019-01-16T06:20:37.910Z,100585.14
2019-01-16T06:23:19.913Z,100578.19
2019-01-16T06:26:06.475Z,100578.57
2019-01-16T06:28:52.914Z,100572.41
2019-01-16T06:31:43.197Z,100568.23
2019-01-16T06:34:32.636Z,100567.30
2019-01-16T06:37:25.561Z,100568.98
2019-01-16T06:40:26.880Z,100574.19
2019-01-16T06:43:14.402Z,100572.98
2019-01-16T06:45:56.884Z,100553.27
2019-01-16T06:48:45.879Z,100559.84
2019-01-16T06:51:53.204Z,100569.42
2019-01-16T06:57:56.437Z,100569.59
2019-01-16T07:00:47.560Z,100557.96
2019-01-16T07:03:35.818Z,100564.72
2019-01-16T07:06:32.458Z,100567.62
2019-01-16T07:09:19.477Z,100566.30
2019-01-16T07:11:58.623Z,100565.84
2019-01-16T07:15:14.717Z,100576.03
2019-01-16T07:18:15.318Z,100573.31
2019-01-16T07:21:02.480Z,100573.31
2019-01-16T07:23:45.920Z,100567.06
2019-01-16T07:26:43.522Z,100563.35
2019-01-16T07:29:32.603Z,100569.37
2019-01-16T07:32:27.085Z,100566.22
2019-01-16T07:35:15.325Z,100565.27
2019-01-16T07:38:15.725Z,100564.11
2019-01-16T07:41:16.446Z,100558.42
2019-01-16T07:44:07.691Z,100566.41
2019-01-16T07:46:48.545Z,100557.48
2019-01-16T07:49:52.219Z,100572.14
2019-01-16T07:52:42.019Z,100564.16
2019-01-16T07:55:30.375Z,100556.08
2019-01-16T07:58:16.817Z,100559.37
2019-01-16T08:01:06.378Z,100554.34
2019-01-16T08:04:05.189Z,100560.91
2019-01-16T08:06:47.420Z,100555.33
2019-01-16T08:09:35.779Z,100555.42
2019-01-16T08:12:27.030Z,100559.22
2019-01-16T08:15:14.062Z,100552.70
2019-01-16T08:18:01.594Z,100555.19
2019-01-16T08:21:10.825Z,100554.58
2019-01-16T08:23:50.785Z,100550.08
2019-01-16T08:26:54.516Z,100543.26
2019-01-16T08:29:52.107Z,100542.03
2019-01-16T08:32:34.110Z,100548.98
2019-01-16T08:35:25.591Z,100539.41
2019-01-16T08:38:29.432Z,100541.86
2019-01-16T08:41:13.114Z,100537.91
2019-01-16T08:44:19.832Z,100539.08
2019-01-16T08:47:01.957Z,100539.08
2019-01-16T08:49:50.195Z,100540.77
2019-01-16T08:52:38.556Z,100523.20
2019-01-16T08:55:16.117Z,100530.53
2019-01-16T08:58:10.479Z,100529.69
2019-01-16T09:00:50.800Z,100527.72
2019-01-16T09:03:51.282Z,100524.24
2019-01-16T09:06:46.844Z,100528.19
2019-01-16T09:09:39.525Z,100524.55
2019-01-16T09:12:28.845Z,100523.71
2019-01-16T09:15:16.127Z,100519.67
2019-01-16T09:18:11.206Z,100515.73
2019-01-16T09:20:47.093Z,100509.06
2019-01-16T09:23:38.569Z,100511.31
2019-01-16T09:26:21.893Z,100504.73
2019-01-16T09:29:04.851Z,100500.05
2019-01-16T09:31:52.373Z,100502.95
2019-01-16T09:34:29.094Z,100495.34
2019-01-16T09:37:15.296Z,100497.88
2019-01-16T09:39:57.057Z,100488.20
2019-01-16T09:42:49.622Z,100492.47
2019-01-16T09:45:36.779Z,100483.16
2019-01-16T09:48:26.040Z,100485.80
2019-01-16T09:51:13.502Z,100484.95
2019-01-16T09:53:50.940Z,100482.13
2019-01-16T09:56:45.783Z,100493.72
2019-01-16T09:59:36.066Z,100483.29
2019-01-16T10:02:23.826Z,100490.71
2019-01-16T10:05:16.867Z,100475.68
2019-01-16T10:08:00.908Z,100483.20
2019-01-16T10:10:52.148Z,100481.22
2019-01-16T10:13:43.991Z,100470.70
2019-01-16T10:16:23.592Z,100476.80
2019-01-16T10:19:18.197Z,100473.08
2019-01-16T10:22:15.799Z,100472.33
2019-01-16T10:24:55.155Z,100471.92
2019-01-16T10:30:39.440Z,100470.44
2019-01-16T10:33:27.439Z,100468.28
2019-01-16T10:36:31.640Z,100471.56
2019-01-16T10:39:21.802Z,100456.91
2019-01-16T10:42:22.524Z,100455.97
2019-01-16T10:45:05.245Z,100454.46
2019-01-16T10:47:52.526Z,100438.67
2019-01-16T10:50:44.368Z,100434.73
2019-01-16T10:53:48.211Z,100437.36
2019-01-16T10:56:55.200Z,100430.98
2019-01-16T10:59:50.252Z,100432.45
2019-01-16T11:02:38.616Z,100429.07
2019-01-16T11:05:15.605Z,100420.63
2019-01-16T11:08:04.808Z,100430.18
2019-01-16T11:11:06.722Z,100425.48
2019-01-16T11:13:56.887Z,100418.23
2019-01-16T11:16:46.331Z,100415.69
2019-01-16T11:19:29.887Z,100406.58
2019-01-16T11:22:21.371Z,100406.11
2019-01-16T11:25:10.944Z,100412.00
2019-01-16T11:27:53.889Z,100407.05
2019-01-16T11:30:46.227Z,100399.32
2019-01-16T11:33:31.089Z,100401.11
2019-01-16T11:36:32.533Z,100401.67
2019-01-16T11:39:20.770Z,100386.02
2019-01-16T11:42:09.730Z,100388.90
2019-01-16T11:45:05.531Z,100394.06
2019-01-16T11:47:59.285Z,100377.28
2019-01-16T11:50:57.510Z,100375.59
2019-01-16T11:53:52.335Z,100368.25
2019-01-16T11:56:33.498Z,100366.19
2019-01-16T11:59:25.342Z,100355.48
2019-01-16T12:02:20.447Z,100356.89
2019-01-16T12:04:58.957Z,100352.30
2019-01-16T12:07:54.015Z,100350.20
2019-01-16T12:10:52.450Z,100339.61
2019-01-16T12:13:59.774Z,100350.13
2019-01-16T12:16:51.499Z,100332.00
2019-01-16T12:19:39.252Z,100332.47
2019-01-16T12:22:28.572Z,100335.10
2019-01-16T12:25:15.132Z,100324.02
2019-01-16T12:28:04.093Z,100317.64
2019-01-16T12:30:51.493Z,100312.38
2019-01-16T12:33:40.214Z,100309.08
2019-01-16T12:36:27.611Z,100296.40
2019-01-16T12:39:13.298Z,100301.66
2019-01-16T12:42:00.756Z,100283.99
2019-01-16T12:44:52.094Z,100290.50
2019-01-16T12:47:39.376Z,100282.52
2019-01-16T12:50:27.376Z,100285.78
2019-01-16T12:53:18.979Z,100279.48
2019-01-16T12:56:19.942Z,100284.11
2019-01-16T12:59:07.098Z,100283.43
2019-01-16T13:02:03.271Z,100279.89
2019-01-16T13:04:54.629Z,100276.11
2019-01-16T13:07:49.348Z,100278.17
2019-01-16T13:10:37.959Z,100268.97
2019-01-16T13:13:26.197Z,100270.95
2019-01-16T13:16:14.666Z,100270.77
2019-01-16T13:19:06.150Z,100271.78
2019-01-16T13:21:57.644Z,100275.92
2019-01-16T13:24:45.639Z,100270.64
2019-01-16T13:27:33.034Z,100266.12
2019-01-16T13:30:19.842Z,100265.57
2019-01-16T13:33:11.593Z,100262.55
2019-01-16T13:35:49.958Z,100264.23
2019-01-16T13:38:37.357Z,100250.90
2019-01-16T13:41:31.844Z,100252.59
2019-01-16T13:44:26.199Z,100255.94
2019-01-16T13:47:04.961Z,100254.27
2019-01-16T13:49:46.361Z,100251.38
2019-01-16T13:52:53.190Z,100254.26
2019-01-16T13:55:43.844Z,100267.59
2019-01-16T13:58:30.767Z,100256.48
2019-01-16T14:01:07.729Z,100257.23
2019-01-16T14:03:54.771Z,100256.04
2019-01-16T14:06:39.768Z,100263.64
2019-01-16T14:09:25.373Z,100251.61
2019-01-16T14:12:05.570Z,100251.61
2019-01-16T14:14:59.694Z,100257.21
2019-01-16T14:17:46.612Z,100246.91
2019-01-16T14:20:34.255Z,100242.70
2019-01-16T14:23:22.392Z,100232.00
2019-01-16T14:26:24.779Z,100229.64
2019-01-16T14:29:13.138Z,100226.92
2019-01-16T14:32:02.824Z,100224.23
2019-01-16T14:34:55.369Z,100210.15
2019-01-16T14:37:50.345Z,100216.25
2019-01-16T14:43:47.037Z,100213.90
2019-01-16T14:46:30.834Z,100219.34
2019-01-16T14:49:10.313Z,100227.48
2019-01-16T14:51:50.680Z,100212.56
2019-01-16T14:54:33.084Z,100205.25
2019-01-16T14:57:27.551Z,100212.64
2019-01-16T15:00:14.953Z,100208.52
2019-01-16T15:03:36.792Z,100202.02
2019-01-16T15:06:47.752Z,100199.21
2019-01-16T15:09:53.838Z,100207.66
2019-01-16T15:12:58.996Z,100195.05
2019-01-16T15:15:45.196Z,100193.56
2019-01-16T15:18:36.683Z,100197.50
2019-01-16T15:21:25.300Z,100189.80
2019-01-16T15:24:15.442Z,100189.34
2019-01-16T15:26:56.360Z,100194.66
2019-01-16T15:29:44.842Z,100193.61
2019-01-16T15:32:44.124Z,100187.91
2019-01-16T15:35:38.605Z,100185.84
2019-01-16T15:38:20.250Z,100181.88
2019-01-16T15:41:17.727Z,100178.10
2019-01-16T15:44:12.088Z,100184.29
2019-01-16T15:46:59.730Z,100182.05
2019-01-16T15:49:47.014Z,100180.57
2019-01-16T15:52:41.732Z,100178.48
2019-01-16T15:55:29.376Z,100176.23
2019-01-16T15:58:17.973Z,100168.98
2019-01-16T16:01:19.055Z,100163.67
2019-01-16T16:04:05.857Z,100171.55
2019-01-16T16:06:54.577Z,100160.83
2019-01-16T16:09:33.939Z,100164.77
2019-01-16T16:12:17.380Z,100152.58
2019-01-16T16:15:00.581Z,100153.98
2019-01-16T16:17:49.661Z,100151.92
2019-01-16T16:20:38.382Z,100141.23
2019-01-16T16:23:30.106Z,100145.20
2019-01-16T16:26:18.826Z,100147.45
2019-01-16T16:29:25.588Z,100146.61
2019-01-16T16:32:23.388Z,100145.29
2019-01-16T16:35:12.589Z,100145.73
2019-01-16T16:38:00.351Z,100131.08
2019-01-16T16:40:38.874Z,100127.89
2019-01-16T16:43:33.870Z,100128.30
2019-01-16T16:46:25.914Z,100119.42
2019-01-16T16:49:05.158Z,100117.90
2019-01-16T16:51:53.191Z,100110.59
2019-01-16T16:54:41.310Z,100115.86
2019-01-16T16:57:23.075Z,100109.09
2019-01-16T17:00:18.392Z,100111.43
2019-01-16T17:03:14.554Z,100110.34
2019-01-16T17:06:03.152Z,100117.61
2019-01-16T17:08:49.839Z,100113.30
2019-01-16T17:11:38.072Z,100102.06
2019-01-16T17:14:27.400Z,100097.91
2019-01-16T17:17:15.872Z,100089.28
2019-01-16T17:19:57.279Z,100088.88
2019-01-16T17:22:52.955Z,100083.35
2019-01-16T17:25:45.394Z,100074.45
2019-01-16T17:28:35.537Z,100073.05
2019-01-16T17:31:24.167Z,100066.39
2019-01-16T17:34:12.398Z,100066.95
2019-01-16T17:37:00.872Z,100070.52
2019-01-16T17:39:52.717Z,100062.08
2019-01-16T17:42:45.916Z,100054.41
2019-01-16T17:45:53.682Z,100050.09
2019-01-16T17:48:48.754Z,100048.78
2019-01-16T17:51:38.781Z,100035.47
2019-01-16T17:54:31.953Z,100035.28
2019-01-16T17:57:22.002Z,100036.41
2019-01-16T18:00:15.053Z,100021.62
2019-01-16T18:03:02.682Z,100023.30
2019-01-16T18:06:01.125Z,100010.80
2019-01-16T18:08:38.075Z,100013.17
2019-01-16T18:11:30.755Z,100013.90
2019-01-16T18:14:19.117Z,100003.62
2019-01-16T18:17:11.434Z,100008.47
2019-01-16T18:19:56.675Z,100009.69
2019-01-16T18:22:47.807Z,100000.70
2019-01-16T18:25:32.346Z,100008.62
2019-01-16T18:28:36.037Z,99995.52
2019-01-16T18:31:24.043Z,100005.82
2019-01-16T18:34:27.762Z,100003.77
2019-01-16T18:37:12.759Z,99997.36
2019-01-16T18:40:09.176Z,100005.23
2019-01-16T18:42:55.841Z,100002.80
2019-01-16T18:46:03.540Z,99985.37
2019-01-16T18:49:10.499Z,99974.89
2019-01-16T18:52:05.685Z,99972.98
2019-01-16T18:54:56.342Z,99961.94
2019-01-16T18:58:24.406Z,99965.97
2019-01-16T19:01:26.689Z,99970.73
2019-01-16T19:04:20.674Z,99972.36
2019-01-16T19:07:18.039Z,99956.31
2019-01-16T19:10:26.827Z,99953.42
2019-01-16T19:13:11.817Z,99955.37
2019-01-16T19:16:04.204Z,99950.34
2019-01-16T19:18:51.259Z,99938.33
2019-01-16T19:21:38.257Z,99930.47
2019-01-16T19:24:16.126Z,99930.47
2019-01-16T19:27:08.418Z,99946.39
2019-01-16T19:30:11.923Z,99941.71
2019-01-16T19:33:03.992Z,99931.23
2019-01-16T19:36:04.474Z,99937.94
2019-01-16T19:39:01.839Z,99939.25
2019-01-16T19:41:46.043Z,99926.89
2019-01-16T19:45:22.941Z,99930.14
2019-01-16T19:48:29.545Z,99922.75
2019-01-16T19:51:30.981Z,99932.12
2019-01-16T19:54:20.685Z,99919.57
2019-01-16T19:57:29.096Z,99925.72
2019-01-16T20:00:20.433Z,99911.39
2019-01-16T20:03:01.176Z,99907.16
2019-01-16T20:05:53.543Z,99902.29
2019-01-16T20:08:39.864Z,99899.77
2019-01-16T20:11:27.592Z,99897.12
2019-01-16T20:14:18.417Z,99907.91
2019-01-16T20:16:57.330Z,99894.43
2019-01-16T20:19:50.274Z,99898.36
2019-01-16T20:22:28.637Z,99889.47
2019-01-16T20:25:31.603Z,99888.72
2019-01-16T20:28:25.448Z,99874.59
2019-01-16T20:31:22.313Z,99871.75
2019-01-16T20:34:09.238Z,99870.94
2019-01-16T20:37:00.400Z,99849.59
2019-01-16T20:39:46.772Z,99850.06
2019-01-16T20:42:29.527Z,99840.64
2019-01-16T20:45:26.364Z,99844.26
2019-01-16T20:48:32.084Z,99845.00
2019-01-16T20:51:25.501Z,99843.52
2019-01-16T20:54:31.605Z,99837.08
2019-01-16T20:57:18.455Z,99829.84
2019-01-16T21:00:04.884Z,99831.16
2019-01-16T21:02:49.734Z,99824.98
2019-01-16T21:05:38.056Z,99833.61
2019-01-16T21:08:23.373Z,99821.98
2019-01-16T21:11:13.277Z,99821.61
2019-01-16T21:13:52.604Z,99807.88
2019-01-16T21:16:42.321Z,99805.50
2019-01-16T21:19:33.359Z,99805.50
2019-01-16T21:22:24.062Z,99803.25
2019-01-16T21:25:06.507Z,99789.98
2019-01-16T21:27:46.046Z,99783.59
2019-01-16T21:30:35.055Z,99779.67
2019-01-16T21:33:38.165Z,99774.60
2019-01-16T21:36:29.186Z,99770.69
2019-01-16T21:39:32.070Z,99770.33
2019-01-16T21:42:32.600Z,99754.50
2019-01-16T21:45:11.511Z,99763.95
2019-01-16T21:48:00.014Z,99760.02
2019-01-16T21:50:57.078Z,99762.26
2019-01-16T21:53:32.000Z,99750.20
2019-01-16T21:56:26.031Z,99751.97
2019-01-16T21:59:20.162Z,99735.48
2019-01-16T22:02:04.028Z,99739.41
2019-01-16T22:04:51.973Z,99736.05
2019-01-16T22:07:51.884Z,99731.74
2019-01-16T22:10:40.121Z,99730.33
2019-01-16T22:13:14.520Z,99730.89
2019-01-16T22:16:00.791Z,99719.58
2019-01-16T22:18:51.826Z,99716.38
2019-01-16T22:21:40.321Z,99718.16
2019-01-16T22:24:14.610Z,99719.94
2019-01-16T22:26:51.200Z,99710.23
2019-01-16T22:29:44.636Z,99714.16
2019-01-16T22:32:42.194Z,99701.06
2019-01-16T22:35:23.365Z,99715.06
2019-01-16T22:38:02.813Z,99690.75
2019-01-16T22:40:49.338Z,99689.89
2019-01-16T22:43:49.094Z,99696.74
2019-01-16T22:46:49.042Z,99687.85
2019-01-16T22:49:31.941Z,99683.55
2019-01-16T22:52:24.339Z,99676.78
2019-01-16T22:55:04.900Z,99684.02
2019-01-16T22:57:47.357Z,99678.59
2019-01-16T23:00:45.141Z,99682.24
2019-01-16T23:03:31.452Z,99678.31
2019-01-16T23:06:19.646Z,99672.33
2019-01-16T23:09:05.631Z,99673.17
2019-01-16T23:11:45.631Z,99672.23
2019-01-16T23:14:35.523Z,99673.34
2019-01-16T23:17:15.247Z,99672.33
2019-01-16T23:20:02.083Z,99673.34
2019-01-16T23:22:48.203Z,99657.05
2019-01-16T23:25:28.805Z,99668.45
2019-01-16T23:28:29.132Z,99657.82
2019-01-16T23:31:19.967Z,99660.16
2019-01-16T23:34:02.247Z,99656.14
2019-01-16T23:36:55.899Z,99654.05
2019-01-16T23:39:43.700Z,99641.73
2019-01-16T23:42:28.462Z,99649.39
2019-01-16T23:45:11.887Z,99632.73
2019-01-16T23:47:53.092Z,99633.11
2019-01-16T23:50:41.236Z,99625.18
2019-01-16T23:53:32.823Z,99627.43
2019-01-16T23:56:12.877Z,99628.36
2019-01-16T23:59:01.525Z,99625.45
